Time;durP1;ratioP1;P1;durP2;ratioP2;P2;SDS_P1;SDS_P2;PMS_P1;PMS_P2;Temp;Humidity;BMP_temperature;BMP_pressure;BME280_temperature;BME280_humidity;BME280_pressure;Samples;Min_cycle;Max_cycle;Signal;HPM_P1;HPM_P2
2023/12/03 00:01:47;;;;;;;27.60;11.52;;;;;;;-6.72;91.27;100674.78;10439388;28;20517;-63
2023/12/03 00:06:50;;;;;;;27.08;11.77;;;;;;;-6.65;90.54;100678.41;10440059;28;20045;-63
2023/12/03 00:11:52;;;;;;;24.13;11.30;;;;;;;-6.74;90.73;100682.13;10440324;28;20045;-62
2023/12/03 00:16:55;;;;;;;25.95;11.48;;;;;;;-6.65;89.91;100675.75;10422256;28;20520;-63
2023/12/03 00:21:57;;;;;;;24.10;10.38;;;;;;;-6.66;90.55;100679.41;10440466;28;20037;-62
2023/12/03 00:26:59;;;;;;;25.85;11.05;;;;;;;-6.58;90.21;100671.41;10440190;28;20037;-62
2023/12/03 00:32:02;;;;;;;26.02;11.13;;;;;;;-6.40;90.09;100665.88;10440215;28;20040;-63
2023/12/03 00:37:04;;;;;;;22.75;10.27;;;;;;;-6.45;89.62;100671.72;10440124;28;20052;-63
2023/12/03 00:42:06;;;;;;;22.52;11.18;;;;;;;-6.51;89.85;100679.56;10435923;28;20052;-63
2023/12/03 00:47:09;;;;;;;23.42;10.18;;;;;;;-6.59;89.67;100669.75;10438534;28;20033;-63
2023/12/03 00:52:11;;;;;;;25.33;11.10;;;;;;;-6.70;90.06;100668.25;10438196;28;20052;-63
2023/12/03 00:57:14;;;;;;;22.92;11.25;;;;;;;-6.57;90.15;100678.41;10432605;28;20038;-63
2023/12/03 01:02:17;;;;;;;20.95;10.18;;;;;;;-6.51;90.57;100672.41;10434994;28;20513;-63
2023/12/03 01:07:19;;;;;;;21.85;10.25;;;;;;;-6.57;89.90;100656.25;10441308;28;20042;-63
2023/12/03 01:12:21;;;;;;;24.38;11.23;;;;;;;-6.69;90.26;100677.94;10472413;28;20057;-66
2023/12/03 01:17:24;;;;;;;23.20;10.38;;;;;;;-6.64;90.19;100672.06;10436320;28;20045;-63
2023/12/03 01:22:27;;;;;;;22.25;11.10;;;;;;;-6.83;90.13;100688.44;10447320;28;20068;-63
2023/12/03 01:27:30;;;;;;;26.52;11.20;;;;;;;-6.68;90.95;100678.75;10473436;28;20040;-62
2023/12/03 01:32:32;;;;;;;20.88;9.13;;;;;;;-6.59;90.05;100688.44;10445542;28;20049;-63
2023/12/03 01:37:35;;;;;;;24.67;9.63;;;;;;;-6.53;89.99;100679.75;10448079;28;20049;-63
2023/12/03 01:42:37;;;;;;;24.25;10.70;;;;;;;-6.69;89.56;100677.09;10444758;28;20049;-62
2023/12/03 01:47:40;;;;;;;20.45;9.82;;;;;;;-6.70;89.94;100676.25;10479416;28;20155;-63
2023/12/03 01:52:43;;;;;;;22.27;10.30;;;;;;;-6.71;89.87;100673.75;10446837;28;20041;-63
2023/12/03 01:57:47;;;;;;;20.30;9.90;;;;;;;-6.75;90.10;100670.59;10444721;28;20037;-62
2023/12/03 02:02:50;;;;;;;18.73;9.00;;;;;;;-6.81;89.62;100665.91;10445095;28;20049;-62
2023/12/03 02:07:53;;;;;;;19.88;9.70;;;;;;;-6.91;90.14;100670.63;10437329;28;20037;-63
2023/12/03 02:12:58;;;;;;;21.70;9.57;;;;;;;-6.80;90.27;100672.09;10437588;28;20037;-63
2023/12/03 02:18:00;;;;;;;21.65;9.35;;;;;;;-6.77;89.94;100672.63;10442397;28;20497;-62
2023/12/03 02:23:02;;;;;;;20.75;9.25;;;;;;;-6.77;90.40;100682.41;10436896;28;21009;-62
2023/12/03 02:28:05;;;;;;;19.80;11.00;;;;;;;-6.69;89.96;100690.44;10434675;28;20029;-61
2023/12/03 02:33:08;;;;;;;18.80;9.50;;;;;;;-6.55;89.68;100696.94;10433877;28;20037;-63
2023/12/03 02:38:10;;;;;;;19.00;9.02;;;;;;;-6.51;89.40;100706.25;10436813;28;20037;-63
2023/12/03 02:43:12;;;;;;;21.08;9.40;;;;;;;-6.57;89.32;100715.78;10437703;28;20057;-63
2023/12/03 02:48:15;;;;;;;19.65;9.30;;;;;;;-6.59;89.55;100727.63;10437118;28;20030;-62
2023/12/03 02:53:17;;;;;;;20.73;9.50;;;;;;;-6.65;89.41;100736.28;10438651;28;20047;-63
2023/12/03 02:58:21;;;;;;;18.60;9.43;;;;;;;-6.42;89.25;100722.13;10425325;28;20046;-63
2023/12/03 03:03:23;;;;;;;17.52;9.50;;;;;;;-6.38;88.94;100715.44;10433783;28;20028;-62
2023/12/03 03:08:26;;;;;;;19.63;10.38;;;;;;;-6.21;89.07;100715.41;10461881;28;20040;-62
2023/12/03 03:13:29;;;;;;;20.35;9.85;;;;;;;-6.20;88.06;100728.56;10441550;28;20822;-62
2023/12/03 03:18:34;;;;;;;21.92;10.30;;;;;;;-6.13;88.23;100729.53;10442658;28;20037;-62
2023/12/03 03:23:37;;;;;;;21.40;9.98;;;;;;;-5.96;88.04;100738.34;10443951;28;20041;-63
2023/12/03 03:28:39;;;;;;;24.02;10.65;;;;;;;-6.19;87.91;100748.09;10440746;28;20061;-63
2023/12/03 03:33:43;;;;;;;21.02;10.30;;;;;;;-6.33;88.50;100749.63;10441954;28;20073;-63
2023/12/03 03:38:46;;;;;;;22.27;10.48;;;;;;;-6.26;88.46;100739.09;10441768;28;20040;-63
2023/12/03 03:43:49;;;;;;;20.95;10.10;;;;;;;-6.21;88.71;100734.09;10436197;28;20053;-62
2023/12/03 03:48:52;;;;;;;21.50;11.20;;;;;;;-6.19;88.21;100740.94;10439328;28;20036;-62
2023/12/03 03:53:54;;;;;;;27.70;13.30;;;;;;;-6.26;88.78;100739.91;10435983;28;20042;-61
2023/12/03 03:58:58;;;;;;;32.00;16.85;;;;;;;-6.22;89.22;100735.94;10438334;28;20049;-62
2023/12/03 04:04:00;;;;;;;36.30;17.42;;;;;;;-6.20;90.09;100731.25;10436051;28;20044;-61
2023/12/03 04:09:03;;;;;;;33.88;17.27;;;;;;;-6.13;90.32;100729.53;10425031;28;20034;-63
2023/12/03 04:14:07;;;;;;;31.35;17.95;;;;;;;-6.29;90.45;100740.25;10428817;28;20041;-61
2023/12/03 04:19:11;;;;;;;34.78;18.30;;;;;;;-6.21;90.54;100736.75;10438846;28;20505;-62
2023/12/03 04:24:13;;;;;;;29.88;14.13;;;;;;;-6.17;90.47;100733.56;10441971;28;20044;-63
2023/12/03 04:29:16;;;;;;;31.40;16.70;;;;;;;-6.03;90.42;100734.72;10445735;28;20619;-62
2023/12/03 04:34:18;;;;;;;27.98;14.55;;;;;;;-5.95;89.83;100734.69;10443502;28;20045;-64
2023/12/03 04:39:20;;;;;;;31.98;15.40;;;;;;;-5.88;89.59;100727.63;10439873;28;20056;-62
2023/12/03 04:44:24;;;;;;;31.08;16.63;;;;;;;-6.07;89.22;100733.41;10430712;28;20084;-63
2023/12/03 04:49:27;;;;;;;33.13;16.42;;;;;;;-5.89;89.25;100735.81;10439016;28;20132;-63
2023/12/03 04:54:35;;;;;;;28.40;13.95;;;;;;;-6.29;89.16;100723.41;10444175;28;20041;-63
2023/12/03 04:59:38;;;;;;;31.30;14.20;;;;;;;-6.35;89.16;100730.28;10448395;28;20033;-63
2023/12/03 05:04:40;;;;;;;27.83;14.55;;;;;;;-6.53;88.74;100726.94;10447996;28;20124;-63
2023/12/03 05:09:42;;;;;;;26.88;13.25;;;;;;;-6.47;89.15;100726.28;10442793;28;20033;-62
2023/12/03 05:14:45;;;;;;;24.45;13.35;;;;;;;-6.48;88.72;100724.59;10447060;28;20505;-62
2023/12/03 05:19:48;;;;;;;26.67;13.43;;;;;;;-6.63;88.82;100721.78;10447992;28;20052;-62
2023/12/03 05:24:50;;;;;;;25.70;13.75;;;;;;;-6.71;89.05;100719.97;10448720;28;20045;-63
2023/12/03 05:29:53;;;;;;;26.55;12.73;;;;;;;-6.65;89.04;100718.44;10441205;28;20041;-63
2023/12/03 05:34:55;;;;;;;25.95;13.23;;;;;;;-6.58;88.91;100719.47;10442958;28;20072;-62
2023/12/03 05:39:57;;;;;;;25.65;14.10;;;;;;;-6.66;88.67;100716.78;10454880;28;20048;-63
2023/12/03 05:45:00;;;;;;;28.58;14.32;;;;;;;-6.69;88.99;100717.13;10451690;28;20053;-63
2023/12/03 05:50:04;;;;;;;27.63;14.65;;;;;;;-6.70;89.15;100718.13;10442834;28;20747;-62
2023/12/03 05:55:06;;;;;;;29.52;14.82;;;;;;;-6.73;89.08;100718.47;10440309;28;20513;-62
2023/12/03 06:00:09;;;;;;;26.52;13.75;;;;;;;-6.80;88.77;100715.59;10442101;28;20041;-61
2023/12/03 06:05:12;;;;;;;24.75;13.63;;;;;;;-6.81;89.20;100716.59;10438969;28;20516;-64
2023/12/03 06:10:14;;;;;;;30.55;14.20;;;;;;;-6.74;89.22;100716.78;10437135;28;20128;-64
2023/12/03 06:15:17;;;;;;;26.70;13.40;;;;;;;-6.73;89.65;100719.28;10428079;28;20037;-63
2023/12/03 06:20:19;;;;;;;28.88;14.35;;;;;;;-6.75;88.87;100723.13;10424240;28;20042;-63
2023/12/03 06:25:21;;;;;;;29.08;14.02;;;;;;;-6.66;89.01;100722.13;10441597;28;20048;-63
2023/12/03 06:30:24;;;;;;;28.30;14.32;;;;;;;-6.54;89.24;100728.78;10426546;28;20040;-63
2023/12/03 06:35:27;;;;;;;27.85;13.15;;;;;;;-6.56;88.72;100716.63;10428407;28;20041;-63
2023/12/03 06:40:30;;;;;;;33.33;16.05;;;;;;;-6.65;88.55;100730.94;10443038;28;20041;-63
2023/12/03 06:45:33;;;;;;;32.25;16.45;;;;;;;-6.63;88.89;100734.28;10434049;28;20080;-63
2023/12/03 06:50:35;;;;;;;33.40;17.10;;;;;;;-6.65;88.43;100728.28;10433030;28;20037;-63
2023/12/03 06:55:38;;;;;;;35.15;18.15;;;;;;;-6.71;88.10;100732.47;10421807;28;20042;-63
2023/12/03 07:00:40;;;;;;;34.55;18.10;;;;;;;-6.64;88.68;100740.63;10429803;28;20041;-63
2023/12/03 07:05:43;;;;;;;35.90;18.52;;;;;;;-6.68;88.67;100735.63;10419014;28;20049;-62
2023/12/03 07:10:46;;;;;;;34.92;17.45;;;;;;;-6.66;88.92;100732.78;10403368;28;20045;-63
2023/12/03 07:15:48;;;;;;;35.25;16.58;;;;;;;-6.45;88.42;100732.28;10406525;28;20041;-62
2023/12/03 07:20:51;;;;;;;33.55;14.95;;;;;;;-6.39;88.54;100736.97;10444297;28;20037;-63
2023/12/03 07:25:54;;;;;;;29.35;13.38;;;;;;;-6.25;88.44;100730.06;10440614;28;20045;-62
2023/12/03 07:30:56;;;;;;;27.10;14.18;;;;;;;-6.27;88.18;100742.75;10441086;28;20551;-64
2023/12/03 07:35:58;;;;;;;27.63;13.80;;;;;;;-6.21;88.29;100739.44;10439220;28;20413;-63
2023/12/03 07:41:01;;;;;;;30.98;15.10;;;;;;;-6.22;87.77;100741.28;10440777;28;20042;-63
2023/12/03 07:46:04;;;;;;;32.08;15.75;;;;;;;-6.22;88.23;100756.47;10436134;28;20037;-63
2023/12/03 07:51:10;;;;;;;35.58;15.13;;;;;;;-6.17;87.82;100749.59;10442928;28;20038;-64
2023/12/03 07:56:13;;;;;;;28.95;15.00;;;;;;;-5.85;87.75;100758.50;10442562;28;20040;-64
2023/12/03 08:01:15;;;;;;;29.50;14.82;;;;;;;-5.89;86.76;100765.22;10440435;28;20045;-64
2023/12/03 08:06:18;;;;;;;31.30;14.93;;;;;;;-5.96;86.75;100770.41;10437112;28;20034;-62
2023/12/03 08:11:20;;;;;;;26.85;13.18;;;;;;;-5.88;87.00;100773.03;10427234;28;20049;-63
2023/12/03 08:16:23;;;;;;;32.88;14.38;;;;;;;-5.51;86.15;100779.59;10431511;28;20041;-62
2023/12/03 08:21:25;;;;;;;29.63;12.15;;;;;;;-5.80;85.39;100774.84;10436475;28;20042;-63
2023/12/03 08:26:30;;;;;;;29.15;11.93;;;;;;;-6.04;85.23;100785.63;10436999;28;20527;-63
2023/12/03 08:31:34;;;;;;;28.83;12.05;;;;;;;-6.14;86.43;100783.13;10415870;28;20034;-63
2023/12/03 08:36:39;;;;;;;30.00;12.93;;;;;;;-6.24;87.06;100786.00;10413794;28;20048;-63
2023/12/03 08:41:41;;;;;;;29.42;12.52;;;;;;;-6.28;87.80;100784.66;10420958;28;20544;-63
2023/12/03 08:46:45;;;;;;;25.70;12.20;;;;;;;-6.35;87.34;100798.84;10425389;28;20038;-63
2023/12/03 08:51:48;;;;;;;25.55;12.05;;;;;;;-6.25;87.87;100799.50;10440476;28;20041;-63
2023/12/03 08:56:50;;;;;;;29.58;13.93;;;;;;;-6.23;88.00;100802.84;10439689;28;20046;-62
2023/12/03 09:01:53;;;;;;;29.65;13.15;;;;;;;-6.25;87.51;100802.16;10434600;28;20052;-65
2023/12/03 09:06:55;;;;;;;29.83;13.57;;;;;;;-6.32;88.16;100807.34;10439434;28;20639;-64
2023/12/03 09:12:00;;;;;;;34.35;12.35;;;;;;;-6.21;87.62;100806.19;10439162;28;20033;-63
2023/12/03 09:17:04;;;;;;;28.40;14.07;;;;;;;-6.17;87.83;100812.84;10439548;28;20544;-64
2023/12/03 09:22:06;;;;;;;32.80;14.43;;;;;;;-6.22;87.93;100812.53;10439205;28;20048;-62
2023/12/03 09:27:09;;;;;;;31.08;12.93;;;;;;;-6.13;87.48;100811.50;10444574;28;20075;-64
2023/12/03 09:32:11;;;;;;;29.13;13.55;;;;;;;-6.19;87.32;100810.34;10438959;28;20041;-64
2023/12/03 09:37:13;;;;;;;29.73;11.70;;;;;;;-6.30;88.12;100809.84;10439404;28;20048;-64
2023/12/03 09:42:18;;;;;;;29.75;12.48;;;;;;;-6.30;88.43;100812.53;10445280;28;20509;-63
2023/12/03 09:47:24;;;;;;;28.15;11.38;;;;;;;-6.41;88.16;100795.03;10443951;28;20050;-62
2023/12/03 09:52:29;;;;;;;30.27;13.13;;;;;;;-6.33;88.67;100803.03;10445421;28;20038;-64
2023/12/03 09:57:33;;;;;;;30.52;12.77;;;;;;;-6.41;88.51;100800.38;10437706;28;20056;-63
2023/12/03 10:02:36;;;;;;;31.90;13.35;;;;;;;-6.15;88.79;100801.00;10445175;28;20053;-62
2023/12/03 10:07:39;;;;;;;38.17;14.23;;;;;;;-5.98;88.29;100791.13;10446230;28;20045;-62
2023/12/03 10:12:42;;;;;;;29.80;13.73;;;;;;;-5.95;88.50;100793.44;10443944;28;20030;-64
2023/12/03 10:17:45;;;;;;;30.67;13.75;;;;;;;-6.01;87.25;100780.78;10469474;28;20041;-64
2023/12/03 10:22:51;;;;;;;33.83;14.60;;;;;;;-5.79;87.08;100774.69;10443729;28;20045;-64
2023/12/03 10:27:56;;;;;;;35.20;14.82;;;;;;;-5.70;87.08;100769.31;10459477;28;20505;-64
2023/12/03 10:32:58;;;;;;;34.83;14.40;;;;;;;-5.76;86.07;100763.63;10446037;28;20033;-63
2023/12/03 10:38:01;;;;;;;36.47;14.88;;;;;;;-5.63;86.17;100762.25;10433561;28;20045;-64
2023/12/03 10:43:03;;;;;;;31.88;13.40;;;;;;;-5.52;85.45;100757.38;10438522;28;20053;-64
2023/12/03 10:48:06;;;;;;;32.33;14.68;;;;;;;-5.44;85.23;100755.66;10439454;28;20045;-63
2023/12/03 10:53:10;;;;;;;28.40;13.57;;;;;;;-5.58;84.91;100744.69;10467785;28;20038;-63
2023/12/03 10:58:18;;;;;;;32.75;15.70;;;;;;;-5.51;85.35;100755.53;10438681;28;20037;-63
2023/12/03 11:03:26;;;;;;;33.55;15.43;;;;;;;-5.52;84.95;100752.03;10437953;28;20193;-63
2023/12/03 11:08:30;;;;;;;30.43;12.23;;;;;;;-5.84;85.23;100750.31;10435779;28;20048;-65
2023/12/03 11:13:33;;;;;;;25.10;11.23;;;;;;;-5.80;86.30;100740.94;10433108;28;20056;-65
2023/12/03 11:18:42;;;;;;;28.00;11.43;;;;;;;-5.77;86.10;100737.91;10442792;28;20509;-65
2023/12/03 11:24:29;;;;;;;28.77;12.30;;;;;;;-5.87;86.27;100728.47;10437726;28;20049;-66
2023/12/03 11:29:52;;;;;;;31.33;14.32;;;;;;;-5.68;86.33;100733.41;10428815;28;20460;-64
2023/12/03 11:35:00;;;;;;;29.20;12.32;;;;;;;-5.72;86.28;100724.06;10444586;28;20041;-68
2023/12/03 11:40:08;;;;;;;30.02;11.23;;;;;;;-5.94;85.50;100722.97;10441894;28;20069;-68
2023/12/03 11:45:29;;;;;;;28.55;12.07;;;;;;;-6.07;87.07;100722.72;10443347;28;20421;-67
2023/12/03 11:50:34;;;;;;;25.73;11.27;;;;;;;-5.95;86.84;100710.63;10439861;28;20516;-67
2023/12/03 11:55:39;;;;;;;26.52;11.85;;;;;;;-5.82;87.01;100718.06;10451886;28;20119;-68
2023/12/03 12:00:42;;;;;;;25.80;12.05;;;;;;;-5.81;86.78;100709.88;10455633;28;20208;-68
2023/12/03 12:05:49;;;;;;;27.60;11.95;;;;;;;-5.77;86.55;100711.19;10434514;28;20065;-68
2023/12/03 12:10:52;;;;;;;30.50;12.50;;;;;;;-5.86;86.68;100709.56;10448742;28;20133;-69
2023/12/03 12:15:56;;;;;;;30.33;12.55;;;;;;;-5.74;87.49;100717.19;10470226;28;20029;-67
2023/12/03 12:21:17;;;;;;;31.48;12.50;;;;;;;-5.67;86.80;100715.50;10433039;28;20563;-66
2023/12/03 12:26:19;;;;;;;28.42;12.38;;;;;;;-5.76;86.86;100714.69;10440351;28;20513;-67
2023/12/03 12:31:26;;;;;;;31.45;13.20;;;;;;;-5.82;86.71;100716.22;10433396;28;20124;-65
2023/12/03 12:36:29;;;;;;;38.25;14.15;;;;;;;-5.91;87.63;100709.28;10434315;28;20147;-68
2023/12/03 12:41:38;;;;;;;38.42;14.73;;;;;;;-6.03;88.00;100705.31;10434527;28;20052;-68
2023/12/03 12:46:55;;;;;;;30.35;13.80;;;;;;;-5.92;88.29;100714.78;10437148;28;20053;-70
2023/12/03 12:52:11;;;;;;;34.28;14.15;;;;;;;-5.08;87.67;100713.16;10430855;28;20040;-69
2023/12/03 12:57:15;;;;;;;34.97;14.52;;;;;;;-5.77;86.33;100721.06;10431205;28;20536;-68
2023/12/03 13:02:19;;;;;;;38.63;12.88;;;;;;;-5.98;86.71;100727.00;10438808;28;20044;-68
2023/12/03 13:07:22;;;;;;;32.60;12.38;;;;;;;-6.00;87.55;100721.00;10404073;28;20034;-67
2023/12/03 13:12:24;;;;;;;29.42;12.63;;;;;;;-6.05;87.46;100720.69;10424308;28;20069;-68
2023/12/03 13:17:27;;;;;;;32.92;12.13;;;;;;;-5.99;87.35;100713.81;10440062;28;20033;-69
2023/12/03 13:22:29;;;;;;;28.52;12.68;;;;;;;-5.89;87.34;100717.94;10444088;28;20041;-69
2023/12/03 13:27:32;;;;;;;27.30;12.85;;;;;;;-5.87;87.19;100718.59;10445655;28;20048;-67
2023/12/03 13:32:37;;;;;;;29.83;12.32;;;;;;;-5.81;87.05;100709.88;10442627;28;20420;-67
2023/12/03 13:37:41;;;;;;;26.42;11.82;;;;;;;-5.89;87.39;100707.25;10442891;28;20184;-67
2023/12/03 13:42:52;;;;;;;25.40;11.38;;;;;;;-5.86;87.76;100708.75;10446721;28;20080;-67
2023/12/03 13:47:55;;;;;;;25.00;12.00;;;;;;;-5.76;87.15;100712.03;10444488;28;20061;-67
2023/12/03 13:52:58;;;;;;;26.38;12.10;;;;;;;-5.82;86.98;100702.88;10443657;28;20040;-67
2023/12/03 13:58:03;;;;;;;27.42;12.88;;;;;;;-5.85;86.92;100711.25;10442209;28;20029;-67
2023/12/03 14:03:06;;;;;;;31.92;11.68;;;;;;;-6.14;87.16;100705.69;10442482;28;20042;-64
2023/12/03 14:08:08;;;;;;;21.77;10.18;;;;;;;-6.23;87.78;100707.56;10442307;28;20048;-63
2023/12/03 14:13:11;;;;;;;25.00;11.73;;;;;;;-6.24;87.89;100705.91;10435880;28;20029;-64
2023/12/03 14:18:13;;;;;;;25.45;12.02;;;;;;;-6.49;88.55;100713.09;10444269;28;20531;-63
2023/12/03 14:23:16;;;;;;;20.05;8.95;;;;;;;-6.48;89.09;100708.59;10443022;28;20044;-62
2023/12/03 14:28:18;;;;;;;24.52;11.93;;;;;;;-6.34;89.78;100704.41;10438817;28;20041;-65
2023/12/03 14:33:21;;;;;;;34.03;11.90;;;;;;;-6.54;89.32;100698.59;10438069;28;20029;-64
2023/12/03 14:38:23;;;;;;;27.70;11.40;;;;;;;-6.41;89.59;100696.25;10440592;28;20536;-63
2023/12/03 14:43:26;;;;;;;24.65;10.02;;;;;;;-6.35;89.49;100703.56;10441083;28;20429;-63
2023/12/03 14:48:29;;;;;;;29.48;11.00;;;;;;;-6.42;88.95;100703.44;10441386;28;20041;-63
2023/12/03 14:53:31;;;;;;;19.50;10.32;;;;;;;-6.34;88.68;100696.38;10440233;28;20044;-63
2023/12/03 14:58:34;;;;;;;23.05;9.18;;;;;;;-6.35;88.40;100694.72;10445557;28;20042;-63
2023/12/03 15:03:38;;;;;;;24.80;10.43;;;;;;;-6.21;88.53;100694.03;10442395;28;20049;-64
2023/12/03 15:08:41;;;;;;;35.25;13.35;;;;;;;-6.17;88.30;100690.84;10441823;28;20417;-63
2023/12/03 15:13:45;;;;;;;24.05;10.10;;;;;;;-6.06;87.97;100692.31;10439113;28;20037;-64
2023/12/03 15:18:47;;;;;;;31.17;12.15;;;;;;;-6.05;87.69;100694.00;10442501;28;20037;-63
2023/12/03 15:23:49;;;;;;;26.23;12.38;;;;;;;-5.98;87.16;100691.44;10439183;28;20052;-63
2023/12/03 15:28:51;;;;;;;37.88;16.65;;;;;;;-5.97;87.13;100685.09;10444750;28;20068;-64
2023/12/03 15:33:54;;;;;;;44.47;15.75;;;;;;;-6.02;86.54;100682.13;10435879;28;20041;-65
2023/12/03 15:38:56;;;;;;;34.50;14.80;;;;;;;-6.01;86.53;100679.28;10436853;28;20539;-63
2023/12/03 15:43:58;;;;;;;34.20;13.73;;;;;;;-6.05;86.79;100682.47;10434356;28;20528;-64
2023/12/03 15:49:00;;;;;;;32.03;13.80;;;;;;;-6.19;86.75;100676.00;10432768;28;20053;-64
2023/12/03 15:54:03;;;;;;;29.38;13.18;;;;;;;-6.14;86.47;100685.16;10434109;28;20523;-64
2023/12/03 15:59:05;;;;;;;32.70;12.60;;;;;;;-6.00;86.60;100680.09;10406036;28;20037;-64
2023/12/03 16:04:08;;;;;;;31.50;11.88;;;;;;;-6.06;86.16;100684.31;10436414;28;20045;-66
2023/12/03 16:09:12;;;;;;;28.23;12.13;;;;;;;-6.06;86.21;100680.81;10437255;28;20422;-63
2023/12/03 16:14:15;;;;;;;28.40;11.68;;;;;;;-5.90;86.62;100686.91;10435872;28;20033;-65
2023/12/03 16:19:18;;;;;;;24.15;11.27;;;;;;;-5.76;85.75;100688.81;10438229;28;20033;-64
2023/12/03 16:24:20;;;;;;;23.15;11.95;;;;;;;-5.76;85.45;100683.47;10436988;28;20048;-64
2023/12/03 16:29:22;;;;;;;24.88;11.50;;;;;;;-5.77;85.61;100681.81;10432830;28;20029;-65
2023/12/03 16:34:29;;;;;;;26.33;10.70;;;;;;;-5.87;84.42;100683.03;10421371;28;20033;-65
2023/12/03 16:39:31;;;;;;;27.52;12.38;;;;;;;-5.94;84.93;100684.75;10425916;28;20737;-65
2023/12/03 16:44:33;;;;;;;25.35;11.75;;;;;;;-5.90;85.38;100684.25;10432346;28;20433;-64
2023/12/03 16:49:35;;;;;;;25.98;10.88;;;;;;;-5.79;85.39;100673.13;10433949;28;20057;-64
2023/12/03 16:54:38;;;;;;;30.40;11.00;;;;;;;-5.79;84.85;100686.50;10446927;28;20041;-62
2023/12/03 16:59:40;;;;;;;22.13;11.52;;;;;;;-5.77;84.68;100681.81;10445575;28;20052;-62
2023/12/03 17:04:45;;;;;;;26.58;12.35;;;;;;;-5.77;85.18;100676.47;10447501;28;20048;-62
2023/12/03 17:09:48;;;;;;;22.65;11.45;;;;;;;-5.82;84.57;100680.66;10450269;28;20521;-66
2023/12/03 17:14:50;;;;;;;23.40;10.43;;;;;;;-5.84;85.13;100683.50;10447214;28;20420;-66
2023/12/03 17:19:52;;;;;;;24.90;11.25;;;;;;;-5.82;85.11;100681.50;10443662;28;20033;-67
2023/12/03 17:24:55;;;;;;;26.25;10.65;;;;;;;-5.90;85.29;100668.22;10448117;28;20046;-65
2023/12/03 17:29:58;;;;;;;28.08;10.57;;;;;;;-5.92;85.49;100666.69;10433377;28;20037;-64
2023/12/03 17:35:00;;;;;;;27.33;11.88;;;;;;;-5.96;85.28;100671.56;10449490;28;20421;-62
2023/12/03 17:40:11;;;;;;;26.13;10.52;;;;;;;-5.97;85.55;100671.75;10449379;28;20130;-63
2023/12/03 17:45:16;;;;;;;20.27;10.68;;;;;;;-5.95;85.53;100662.53;10419415;28;20041;-65
2023/12/03 17:50:18;;;;;;;24.00;9.95;;;;;;;-5.94;85.54;100668.72;10449705;28;20041;-63
2023/12/03 17:55:23;;;;;;;23.92;9.98;;;;;;;-5.89;85.96;100659.16;10436530;28;21865;-64
2023/12/03 18:00:27;;;;;;;28.95;11.75;;;;;;;-5.90;86.22;100657.53;10445170;28;20045;-62
2023/12/03 18:05:29;;;;;;;21.88;8.65;;;;;;;-5.88;85.84;100662.66;10441067;28;20080;-62
2023/12/03 18:10:31;;;;;;;19.50;8.95;;;;;;;-5.99;85.89;100652.38;10442211;28;20033;-65
2023/12/03 18:15:33;;;;;;;20.00;9.00;;;;;;;-5.98;86.38;100657.56;10440368;28;20103;-64
2023/12/03 18:20:38;;;;;;;24.42;9.73;;;;;;;-5.97;86.20;100648.53;10431344;28;20037;-63
2023/12/03 18:25:41;;;;;;;22.38;9.88;;;;;;;-6.02;85.97;100653.56;10438831;28;20029;-62
2023/12/03 18:30:43;;;;;;;18.45;8.68;;;;;;;-6.11;86.06;100650.09;10448039;28;20029;-63
2023/12/03 18:35:46;;;;;;;17.38;8.85;;;;;;;-6.25;85.95;100655.31;10438519;28;20048;-63
2023/12/03 18:40:53;;;;;;;19.45;7.75;;;;;;;-6.34;85.99;100645.66;10437552;28;20042;-63
2023/12/03 18:45:57;;;;;;;16.63;9.32;;;;;;;-6.34;87.12;100651.84;10435298;28;20028;-62
2023/12/03 18:51:02;;;;;;;29.95;13.30;;;;;;;-6.24;86.56;100652.50;10439205;28;20402;-62
2023/12/03 18:56:06;;;;;;;29.70;14.77;;;;;;;-6.28;86.32;100652.97;10432582;28;20037;-61
2023/12/03 19:01:09;;;;;;;36.80;17.00;;;;;;;-6.25;86.75;100658.81;10432076;28;20084;-60
2023/12/03 19:06:14;;;;;;;38.25;16.48;;;;;;;-6.19;86.25;100659.97;10441289;28;20045;-63
2023/12/03 19:11:17;;;;;;;39.83;18.90;;;;;;;-6.20;86.35;100663.66;10441163;28;20037;-61
2023/12/03 19:16:20;;;;;;;41.35;19.02;;;;;;;-6.10;86.25;100658.94;10429443;28;20425;-62
2023/12/03 19:21:22;;;;;;;40.40;21.05;;;;;;;-6.12;86.62;100652.94;10450376;28;20045;-62
2023/12/03 19:26:25;;;;;;;45.97;22.55;;;;;;;-6.18;86.12;100650.97;10439318;28;20421;-62
2023/12/03 19:31:27;;;;;;;41.40;20.95;;;;;;;-6.17;86.79;100652.63;10437981;28;20422;-61
2023/12/03 19:36:30;;;;;;;41.60;21.70;;;;;;;-6.24;86.76;100646.31;10442257;28;20044;-62
2023/12/03 19:41:32;;;;;;;40.22;20.80;;;;;;;-6.23;87.25;100646.13;10434600;28;20505;-62
2023/12/03 19:46:35;;;;;;;40.65;21.27;;;;;;;-6.30;86.52;100638.97;10432609;28;20064;-63
2023/12/03 19:51:37;;;;;;;42.58;22.70;;;;;;;-6.40;87.26;100641.84;10451092;28;20037;-62
2023/12/03 19:56:40;;;;;;;42.90;22.08;;;;;;;-6.32;87.39;100651.66;10426312;28;20045;-64
2023/12/03 20:01:42;;;;;;;46.78;23.15;;;;;;;-6.28;86.94;100639.63;10435464;28;20037;-63
2023/12/03 20:06:45;;;;;;;43.75;21.80;;;;;;;-6.24;86.87;100635.63;10461222;28;20036;-62
2023/12/03 20:11:48;;;;;;;41.53;21.08;;;;;;;-6.26;86.35;100643.78;10427829;28;20806;-61
2023/12/03 20:16:50;;;;;;;49.70;22.80;;;;;;;-6.28;86.76;100647.63;10443565;28;20535;-62
2023/12/03 20:21:55;;;;;;;46.05;22.25;;;;;;;-6.24;86.02;100639.13;10436208;28;20033;-61
2023/12/03 20:26:59;;;;;;;43.92;22.30;;;;;;;-6.24;86.15;100631.13;10431461;28;20048;-62
2023/12/03 20:32:01;;;;;;;39.53;20.65;;;;;;;-6.24;86.27;100632.97;10437958;28;20045;-61
2023/12/03 20:37:11;;;;;;;40.13;20.63;;;;;;;-6.39;87.15;100627.50;10435743;28;20041;-61
2023/12/03 20:42:16;;;;;;;42.67;20.30;;;;;;;-6.54;87.04;100611.34;10443061;28;20478;-62
2023/12/03 20:47:23;;;;;;;37.63;18.58;;;;;;;-6.52;87.30;100629.88;10434977;28;20735;-62
2023/12/03 20:52:26;;;;;;;41.90;19.40;;;;;;;-6.49;87.04;100629.50;10435648;28;20029;-61
2023/12/03 20:57:28;;;;;;;40.10;20.50;;;;;;;-6.56;87.30;100628.53;10433729;28;20037;-62
2023/12/03 21:02:31;;;;;;;41.35;21.95;;;;;;;-6.56;87.96;100626.72;10430987;28;20776;-62
2023/12/03 21:07:34;;;;;;;43.08;21.85;;;;;;;-6.53;87.53;100629.03;10430869;28;20052;-62
2023/12/03 21:12:37;;;;;;;44.05;21.05;;;;;;;-6.52;87.99;100622.69;10436702;28;20029;-63
2023/12/03 21:17:40;;;;;;;42.38;21.52;;;;;;;-6.63;87.63;100607.03;10449547;28;20041;-63
2023/12/03 21:22:43;;;;;;;40.28;21.02;;;;;;;-6.56;88.02;100621.38;10430548;28;20547;-63
2023/12/03 21:27:46;;;;;;;41.55;22.10;;;;;;;-6.42;87.74;100615.34;10434108;28;20033;-62
2023/12/03 21:32:48;;;;;;;39.53;20.13;;;;;;;-6.50;86.93;100625.19;10432379;28;20038;-63
2023/12/03 21:37:54;;;;;;;35.58;19.92;;;;;;;-6.63;87.07;100620.38;10452307;28;20165;-62
2023/12/03 21:42:56;;;;;;;38.40;19.08;;;;;;;-6.69;87.50;100605.06;10435780;28;20054;-62
2023/12/03 21:47:59;;;;;;;35.25;17.77;;;;;;;-6.76;87.54;100612.91;10442624;28;20203;-61
2023/12/03 21:53:02;;;;;;;34.83;17.05;;;;;;;-6.83;87.91;100606.56;10444166;28;20043;-61
2023/12/03 21:58:04;;;;;;;31.15;16.08;;;;;;;-6.81;87.68;100615.22;10439837;28;20504;-62
2023/12/03 22:03:06;;;;;;;26.00;12.77;;;;;;;-6.92;87.61;100615.59;10436967;28;20037;-64
2023/12/03 22:08:08;;;;;;;24.20;12.55;;;;;;;-6.88;88.64;100610.75;10451231;28;20037;-63
2023/12/03 22:13:11;;;;;;;33.50;15.02;;;;;;;-6.88;88.53;100613.44;10445918;28;20082;-62
2023/12/03 22:18:13;;;;;;;27.00;13.63;;;;;;;-6.98;88.17;100616.25;10443859;28;20051;-63
2023/12/03 22:23:15;;;;;;;27.73;14.00;;;;;;;-7.01;88.58;100611.25;10435823;28;20041;-63
2023/12/03 22:28:18;;;;;;;24.35;12.93;;;;;;;-6.86;88.05;100600.75;10440753;28;20048;-63
2023/12/03 22:33:20;;;;;;;22.83;11.98;;;;;;;-6.75;88.49;100597.72;10434132;28;20509;-62
2023/12/03 22:38:22;;;;;;;24.50;12.18;;;;;;;-6.76;87.45;100588.91;10443392;28;20522;-62
2023/12/03 22:43:25;;;;;;;23.60;12.13;;;;;;;-6.81;87.80;100590.38;10442141;28;20532;-62